createdAt,value
2018-02-09T00:01:16.138Z,-1.50
2018-02-09T00:03:43.650Z,-1.60
2018-02-09T00:06:11.155Z,-1.60
2018-02-09T00:08:38.742Z,-1.50
2018-02-09T00:11:06.258Z,-1.50
2018-02-09T00:13:33.781Z,-1.50
2018-02-09T00:16:01.287Z,-1.50
2018-02-09T00:18:28.814Z,-1.40
2018-02-09T00:20:56.322Z,-1.40
2018-02-09T00:23:24.606Z,-1.40
2018-02-09T00:25:52.123Z,-1.40
2018-02-09T00:28:19.642Z,-1.50
2018-02-09T00:30:47.141Z,-1.50
2018-02-09T00:33:14.657Z,-1.40
2018-02-09T00:35:42.157Z,-1.40
2018-02-09T00:38:09.686Z,-1.40
2018-02-09T00:40:37.190Z,-1.50
2018-02-09T00:43:04.705Z,-1.50
2018-02-09T00:45:32.209Z,-1.50
2018-02-09T00:48:00.497Z,-1.60
2018-02-09T00:50:28.762Z,-1.60
2018-02-09T00:52:57.053Z,-1.50
2018-02-09T00:55:25.321Z,-1.40
2018-02-09T00:57:53.615Z,-1.40
2018-02-09T01:00:21.128Z,-1.40
2018-02-09T01:02:48.670Z,-1.30
2018-02-09T01:05:16.170Z,-1.40
2018-02-09T01:07:44.438Z,-1.50
2018-02-09T01:10:11.958Z,-1.40
2018-02-09T01:12:39.464Z,-1.50
2018-02-09T01:15:07.750Z,-1.40
2018-02-09T01:17:36.015Z,-1.50
2018-02-09T01:20:04.297Z,-1.50
2018-02-09T01:22:32.574Z,-1.40
2018-02-09T01:25:00.861Z,-1.40
2018-02-09T01:27:28.365Z,-1.40
2018-02-09T01:29:55.886Z,-1.50
2018-02-09T01:32:23.386Z,-1.50
2018-02-09T01:34:50.902Z,-1.40
2018-02-09T01:37:18.406Z,-1.40
2018-02-09T01:39:45.918Z,-1.50
2018-02-09T01:42:13.418Z,-1.30
2018-02-09T01:44:40.934Z,-1.30
2018-02-09T01:47:08.439Z,-1.40
2018-02-09T01:49:35.963Z,-1.50
2018-02-09T01:52:03.462Z,-1.50
2018-02-09T01:54:30.982Z,-1.50
2018-02-09T01:56:58.498Z,-1.50
2018-02-09T01:59:26.782Z,-1.50
2018-02-09T02:01:55.045Z,-1.50
2018-02-09T02:04:23.330Z,-1.50
2018-02-09T02:06:51.602Z,-1.50
2018-02-09T02:09:19.922Z,-1.50
2018-02-09T02:11:47.422Z,-1.50
2018-02-09T02:14:14.925Z,-1.50
2018-02-09T02:16:42.448Z,-1.50
2018-02-09T02:19:10.714Z,-1.50
2018-02-09T02:21:38.233Z,-1.60
2018-02-09T02:24:05.738Z,-1.50
2018-02-09T02:26:34.026Z,-1.50
2018-02-09T02:29:02.302Z,-1.50
2018-02-09T02:31:30.591Z,-1.50
2018-02-09T02:33:58.099Z,-1.50
2018-02-09T02:36:25.620Z,-1.50
2018-02-09T02:38:53.134Z,-1.50
2018-02-09T02:41:20.658Z,-1.50
2018-02-09T02:43:48.170Z,-1.40
2018-02-09T02:46:16.454Z,-1.40
2018-02-09T02:48:43.962Z,-1.40
2018-02-09T02:51:11.491Z,-1.50
2018-02-09T02:53:38.993Z,-1.40
2018-02-09T02:56:06.522Z,-1.50
2018-02-09T02:58:34.018Z,-1.40
2018-02-09T03:01:01.538Z,-1.50
2018-02-09T03:03:29.042Z,-1.50
2018-02-09T03:05:57.330Z,-1.50
2018-02-09T03:08:25.593Z,-1.50
2018-02-09T03:10:53.885Z,-1.50
2018-02-09T03:13:22.157Z,-1.60
2018-02-09T03:15:50.431Z,-1.60
2018-02-09T03:18:18.726Z,-1.60
2018-02-09T03:20:46.228Z,-1.60
2018-02-09T03:23:13.749Z,-1.50
2018-02-09T03:25:41.250Z,-1.50
2018-02-09T03:28:08.775Z,-1.50
2018-02-09T03:30:36.279Z,-1.50
2018-02-09T03:33:03.798Z,-1.40
2018-02-09T03:35:31.301Z,-1.50
2018-02-09T03:37:58.822Z,-1.50
2018-02-09T03:40:26.321Z,-1.60
2018-02-09T03:42:54.606Z,-1.60
2018-02-09T03:45:22.874Z,-1.60
2018-02-09T03:47:51.157Z,-1.70
2018-02-09T03:50:19.422Z,-1.70
2018-02-09T03:52:46.945Z,-1.70
2018-02-09T03:55:14.449Z,-1.50
2018-02-09T03:57:42.738Z,-1.50
2018-02-09T04:00:10.251Z,-1.50
2018-02-09T04:02:37.771Z,-1.50
2018-02-09T04:05:05.275Z,-1.50
2018-02-09T04:07:32.797Z,-1.40
2018-02-09T04:10:00.302Z,-1.40
2018-02-09T04:12:27.821Z,-1.40
2018-02-09T04:14:55.321Z,-1.40
2018-02-09T04:17:22.840Z,-1.50
2018-02-09T04:19:50.342Z,-1.50
2018-02-09T04:22:18.626Z,-1.60
2018-02-09T04:24:46.898Z,-1.50
2018-02-09T04:27:15.191Z,-1.60
2018-02-09T04:29:42.698Z,-1.60
2018-02-09T04:32:10.214Z,-1.60
2018-02-09T04:34:37.746Z,-1.50
2018-02-09T04:37:06.029Z,-1.30
2018-02-09T04:39:34.298Z,-1.40
2018-02-09T04:42:02.663Z,-1.40
2018-02-09T04:44:30.162Z,-1.40
2018-02-09T04:46:57.683Z,-1.50
2018-02-09T04:49:25.186Z,-1.40
2018-02-09T04:51:52.706Z,-1.50
2018-02-09T04:54:20.973Z,-1.40
2018-02-09T04:56:48.489Z,-1.50
2018-02-09T04:59:15.998Z,-1.40
2018-02-09T05:01:44.300Z,-1.60
2018-02-09T05:04:11.842Z,-1.60
2018-02-09T05:06:40.126Z,-1.50
2018-02-09T05:09:08.394Z,-1.60
2018-02-09T05:11:36.662Z,-1.60
2018-02-09T05:14:04.942Z,-1.60
2018-02-09T05:16:33.216Z,-1.60
2018-02-09T05:19:01.498Z,-1.60
2018-02-09T05:21:29.762Z,-1.60
2018-02-09T05:23:58.103Z,-1.60
2018-02-09T05:26:25.606Z,-1.70
2018-02-09T05:28:53.930Z,-1.60
2018-02-09T05:31:21.426Z,-1.70
2018-02-09T05:33:48.949Z,-1.60
2018-02-09T05:36:16.454Z,-1.50
2018-02-09T05:38:44.746Z,-1.60
2018-02-09T05:41:12.245Z,-1.60
2018-02-09T05:43:39.771Z,-1.60
2018-02-09T05:46:07.278Z,-1.60
2018-02-09T05:48:34.795Z,-1.70
2018-02-09T05:51:02.309Z,-1.70
2018-02-09T05:53:29.833Z,-1.70
2018-02-09T05:55:57.330Z,-1.80
2018-02-09T05:58:24.846Z,-1.70
2018-02-09T06:00:52.359Z,-1.80
2018-02-09T06:03:20.642Z,-1.70
2018-02-09T06:05:48.930Z,-1.70
2018-02-09T06:08:16.454Z,-1.70
2018-02-09T06:10:43.961Z,-1.70
2018-02-09T06:13:11.486Z,-1.70
2018-02-09T06:15:39.754Z,-1.70
2018-02-09T06:18:08.042Z,-1.70
2018-02-09T06:20:36.310Z,-1.70
2018-02-09T06:23:04.597Z,-1.70
2018-02-09T06:25:32.866Z,-1.60
2018-02-09T06:28:01.150Z,-1.50
2018-02-09T06:30:29.422Z,-1.40
2018-02-09T06:32:57.710Z,-1.50
2018-02-09T06:35:25.217Z,-1.50
2018-02-09T06:37:52.750Z,-1.40
2018-02-09T06:40:20.249Z,-1.40
2018-02-09T06:42:48.147Z,-1.00
2018-02-09T06:45:15.662Z,-1.10
2018-02-09T06:47:43.166Z,-1.30
2018-02-09T06:50:10.677Z,-1.30
2018-02-09T06:52:38.182Z,-1.30
2018-02-09T06:55:05.705Z,-1.30
2018-02-09T06:57:33.210Z,-1.30
2018-02-09T07:00:00.767Z,-1.30
2018-02-09T07:02:28.283Z,-1.30
2018-02-09T07:04:55.797Z,-1.40
2018-02-09T07:07:23.298Z,-1.40
2018-02-09T07:09:50.855Z,-1.40
2018-02-09T07:12:18.346Z,-1.30
2018-02-09T07:14:45.865Z,-1.10
2018-02-09T07:17:13.370Z,-1.10
2018-02-09T07:19:40.906Z,-1.20
2018-02-09T07:22:09.174Z,-1.20
2018-02-09T07:24:37.482Z,-1.20
2018-02-09T07:27:04.987Z,-1.20
2018-02-09T07:29:32.489Z,-1.20
2018-02-09T07:32:00.572Z,-1.20
2018-02-09T07:34:28.076Z,-1.10
2018-02-09T07:36:55.598Z,-1.10
2018-02-09T07:39:23.106Z,-1.10
2018-02-09T07:41:50.626Z,-1.10
2018-02-09T07:44:18.129Z,-1.00
2018-02-09T07:46:46.422Z,-0.90
2018-02-09T07:49:14.690Z,-0.70
2018-02-09T07:51:42.978Z,-0.70
2018-02-09T07:54:10.510Z,-0.70
2018-02-09T07:56:38.037Z,-0.70
2018-02-09T07:59:06.303Z,-0.70
2018-02-09T08:01:33.822Z,-0.70
2018-02-09T08:04:02.093Z,-0.70
2018-02-09T08:06:30.384Z,-0.60
2018-02-09T08:08:57.887Z,-0.60
2018-02-09T08:11:25.412Z,-0.20
2018-02-09T08:13:52.913Z,-0.40
2018-02-09T08:16:20.430Z,-0.50
2018-02-09T08:18:47.934Z,-0.50
2018-02-09T08:21:15.457Z,-0.40
2018-02-09T08:23:42.962Z,-0.50
2018-02-09T08:26:10.486Z,-0.50
2018-02-09T08:28:37.985Z,-0.60
2018-02-09T08:31:06.274Z,-0.50
2018-02-09T08:33:34.542Z,-0.30
2018-02-09T08:36:02.834Z,-0.30
2018-02-09T08:38:30.338Z,-0.30
2018-02-09T08:40:57.864Z,-0.30
2018-02-09T08:43:25.370Z,-0.10
2018-02-09T08:45:52.890Z,0.00
2018-02-09T08:48:20.393Z,-0.10
2018-02-09T08:50:47.905Z,0.00
2018-02-09T08:53:15.407Z,0.10
2018-02-09T08:55:42.927Z,0.10
2018-02-09T08:58:10.425Z,0.10
2018-02-09T09:00:37.947Z,-0.10
2018-02-09T09:03:05.449Z,0.00
2018-02-09T09:05:33.737Z,-0.30
2018-02-09T09:08:02.002Z,-0.30
2018-02-09T09:10:30.286Z,-0.20
2018-02-09T09:12:58.554Z,-0.10
2018-02-09T09:15:26.822Z,0.00
2018-02-09T09:17:54.335Z,0.00
2018-02-09T09:20:21.834Z,0.00
2018-02-09T09:22:49.350Z,0.10
2018-02-09T09:25:16.846Z,0.20
2018-02-09T09:27:44.362Z,0.30
2018-02-09T09:30:11.860Z,0.10
2018-02-09T09:32:39.370Z,0.00
2018-02-09T09:35:06.866Z,0.10
2018-02-09T09:37:34.377Z,0.20
2018-02-09T09:40:01.873Z,0.30
2018-02-09T09:42:29.381Z,0.20
2018-02-09T09:44:57.642Z,0.10
2018-02-09T09:47:25.927Z,0.30
2018-02-09T09:49:54.190Z,0.30
2018-02-09T09:52:21.705Z,0.30
2018-02-09T09:54:49.202Z,-0.10
2018-02-09T09:57:16.720Z,-0.40
2018-02-09T09:59:44.223Z,-0.30
2018-02-09T10:02:23.679Z,-0.20
2018-02-09T10:04:51.950Z,0.30
2018-02-09T10:07:20.229Z,0.30
2018-02-09T10:09:48.494Z,0.40
2018-02-09T10:12:16.770Z,0.30
2018-02-09T10:14:45.042Z,0.30
2018-02-09T10:17:13.327Z,0.40
2018-02-09T10:19:41.594Z,0.50
2018-02-09T10:22:09.110Z,0.50
2018-02-09T10:24:36.601Z,0.50
2018-02-09T10:27:04.109Z,0.50
2018-02-09T10:29:31.610Z,0.10
2018-02-09T10:31:59.337Z,0.20
2018-02-09T10:34:26.829Z,0.20
2018-02-09T10:36:54.346Z,-0.40
2018-02-09T10:39:21.874Z,-0.20
2018-02-09T10:41:50.140Z,0.20
2018-02-09T10:44:18.421Z,0.30
2018-02-09T10:46:46.686Z,0.50
2018-02-09T10:49:14.197Z,0.50
2018-02-09T10:51:41.689Z,0.70
2018-02-09T10:54:09.202Z,0.70
2018-02-09T10:56:36.709Z,0.40
2018-02-09T10:59:04.232Z,0.30
2018-02-09T11:01:36.533Z,0.30
2018-02-09T11:04:04.050Z,0.40
2018-02-09T11:06:31.549Z,0.50
2018-02-09T11:09:04.839Z,0.50
2018-02-09T11:11:32.347Z,0.50
2018-02-09T11:13:59.857Z,0.40
2018-02-09T11:16:27.349Z,0.50
2018-02-09T11:18:55.625Z,0.70
2018-02-09T11:21:23.890Z,0.60
2018-02-09T11:23:52.170Z,0.20
2018-02-09T11:26:20.425Z,0.30
2018-02-09T11:28:47.933Z,0.30
2018-02-09T11:31:15.430Z,0.40
2018-02-09T11:33:42.942Z,0.60
2018-02-09T11:36:10.475Z,0.80
2018-02-09T11:38:37.969Z,0.80
2018-02-09T11:41:05.466Z,0.60
2018-02-09T11:43:32.997Z,0.40
2018-02-09T11:46:00.502Z,0.60
2018-02-09T11:48:27.994Z,0.50
2018-02-09T11:50:55.509Z,0.40
2018-02-09T11:53:23.010Z,0.50
2018-02-09T11:55:50.526Z,0.40
2018-02-09T11:58:18.021Z,0.50
2018-02-09T12:00:45.533Z,0.30
2018-02-09T12:03:13.029Z,-0.20
2018-02-09T12:05:40.546Z,-0.40
2018-02-09T12:08:08.053Z,-0.20
2018-02-09T12:10:35.569Z,0.00
2018-02-09T12:13:03.080Z,0.20
2018-02-09T12:15:30.589Z,0.40
2018-02-09T12:17:58.326Z,0.40
2018-02-09T12:20:25.833Z,0.60
2018-02-09T12:22:54.101Z,0.20
2018-02-09T12:25:22.464Z,0.20
2018-02-09T12:27:49.953Z,0.20
2018-02-09T12:30:17.470Z,0.30
2018-02-09T12:32:44.970Z,0.40
2018-02-09T12:35:12.490Z,0.40
2018-02-09T12:37:39.986Z,0.40
2018-02-09T12:40:07.506Z,0.60
2018-02-09T12:42:35.793Z,1.00
2018-02-09T12:45:03.302Z,1.00
2018-02-09T12:47:30.802Z,0.90
2018-02-09T12:49:58.313Z,0.80
2018-02-09T12:52:25.818Z,0.80
2018-02-09T12:54:53.333Z,0.80
2018-02-09T12:57:20.826Z,0.70
2018-02-09T12:59:48.342Z,0.50
2018-02-09T13:02:15.842Z,0.60
2018-02-09T13:04:43.365Z,0.50
2018-02-09T13:07:10.858Z,0.30
2018-02-09T13:09:38.362Z,0.30
2018-02-09T13:12:05.874Z,0.20
2018-02-09T13:14:45.321Z,0.10
2018-02-09T13:17:12.818Z,0.10
2018-02-09T13:19:40.318Z,0.00
2018-02-09T13:22:07.833Z,0.00
2018-02-09T13:24:35.338Z,0.00
2018-02-09T13:27:02.849Z,0.10
2018-02-09T13:29:30.351Z,0.20
2018-02-09T13:31:57.866Z,0.30
2018-02-09T13:34:25.361Z,0.20
2018-02-09T13:40:04.482Z,-0.10
2018-02-09T13:42:31.998Z,0.00
2018-02-09T13:44:59.504Z,0.10
2018-02-09T13:47:27.025Z,-0.10
2018-02-09T13:49:55.291Z,0.20
2018-02-09T13:52:22.809Z,0.20
2018-02-09T13:54:50.302Z,0.30
2018-02-09T13:57:17.818Z,0.20
2018-02-09T13:59:45.314Z,0.40
2018-02-09T14:02:12.834Z,0.40
2018-02-09T14:04:40.335Z,0.30
2018-02-09T14:07:07.859Z,0.60
2018-02-09T14:09:35.353Z,0.50
2018-02-09T14:12:03.263Z,0.40
2018-02-09T14:14:30.766Z,0.10
2018-02-09T14:16:58.278Z,0.20
2018-02-09T14:19:25.777Z,0.20
2018-02-09T14:21:53.294Z,0.20
2018-02-09T14:24:20.794Z,0.20
2018-02-09T14:26:48.306Z,0.00
2018-02-09T14:29:15.826Z,0.00
2018-02-09T14:31:43.350Z,-0.10
2018-02-09T14:34:10.850Z,0.00
2018-02-09T14:36:39.133Z,0.00
2018-02-09T14:39:07.399Z,0.00
2018-02-09T14:41:35.686Z,0.10
2018-02-09T14:44:03.959Z,-0.10
2018-02-09T14:46:32.248Z,-0.20
2018-02-09T14:49:00.523Z,-0.30
2018-02-09T14:51:28.046Z,-0.30
2018-02-09T14:53:55.554Z,-0.40
2018-02-09T14:56:23.075Z,-0.30
2018-02-09T14:58:50.587Z,-0.30
2018-02-09T15:01:18.112Z,-0.20
2018-02-09T15:03:46.385Z,-0.20
2018-02-09T15:06:14.677Z,-0.20
2018-02-09T15:08:42.177Z,-0.20
2018-02-09T15:11:09.694Z,-0.10
2018-02-09T15:13:37.198Z,-0.10
2018-02-09T15:16:04.698Z,-0.30
2018-02-09T15:18:32.986Z,-0.40
2018-02-09T15:21:00.493Z,-0.40
2018-02-09T15:23:28.023Z,-0.40
2018-02-09T15:25:55.525Z,-0.30
2018-02-09T15:28:23.050Z,-0.40
2018-02-09T15:30:50.555Z,-0.30
2018-02-09T15:33:18.846Z,-0.50
2018-02-09T15:35:46.357Z,-0.50
2018-02-09T15:38:13.879Z,-0.50
2018-02-09T15:40:41.393Z,-0.40
2018-02-09T15:43:08.917Z,-0.50
2018-02-09T15:45:36.418Z,-0.50
2018-02-09T15:48:04.704Z,-0.70
2018-02-09T15:50:32.973Z,-0.70
2018-02-09T15:53:01.253Z,-0.90
2018-02-09T15:55:29.522Z,-0.90
2018-02-09T15:57:57.814Z,-0.90
2018-02-09T16:00:26.078Z,-0.70
2018-02-09T16:02:54.362Z,-0.60
2018-02-09T16:05:22.633Z,-0.70
2018-02-09T16:07:50.913Z,-0.70
2018-02-09T16:10:19.182Z,-0.70
2018-02-09T16:12:47.473Z,-0.70
2018-02-09T16:15:14.998Z,-0.70
2018-02-09T16:17:43.015Z,-0.80
2018-02-09T16:20:10.517Z,-0.60
2018-02-09T16:22:38.042Z,-0.60
2018-02-09T16:25:05.550Z,-0.70
2018-02-09T16:27:33.842Z,-0.70
2018-02-09T16:30:02.111Z,-0.60
2018-02-09T16:32:30.397Z,-0.70
2018-02-09T16:34:58.670Z,-0.70
2018-02-09T16:37:26.958Z,-0.80
2018-02-09T16:39:54.473Z,-0.80
2018-02-09T16:42:21.995Z,-0.80
2018-02-09T16:44:49.501Z,-0.90
2018-02-09T16:47:17.031Z,-0.90
2018-02-09T16:49:44.533Z,-0.80
2018-02-09T16:52:12.823Z,-0.90
2018-02-09T16:54:40.326Z,-0.90
2018-02-09T16:57:07.849Z,-0.70
2018-02-09T16:59:35.353Z,-0.80
2018-02-09T17:02:02.962Z,-0.80
2018-02-09T17:04:30.399Z,-0.80
2018-02-09T17:06:58.717Z,-0.70
2018-02-09T17:09:26.222Z,-0.70
2018-02-09T17:11:54.498Z,-0.80
2018-02-09T17:14:22.022Z,-0.80
2018-02-09T17:16:49.563Z,-1.10
2018-02-09T17:19:17.151Z,-1.10
2018-02-09T17:21:44.626Z,-1.10
2018-02-09T17:24:12.154Z,-1.00
2018-02-09T17:26:39.657Z,-1.10
2018-02-09T17:29:07.956Z,-1.00
2018-02-09T17:31:35.457Z,-1.00
2018-02-09T17:34:02.975Z,-1.00
2018-02-09T17:36:30.505Z,-1.10
2018-02-09T17:38:58.794Z,-1.10
2018-02-09T17:41:27.066Z,-1.10
2018-02-09T17:43:55.358Z,-1.20
2018-02-09T17:46:23.236Z,-1.20
2018-02-09T17:48:50.758Z,-1.10
2018-02-09T17:51:19.035Z,-1.10
2018-02-09T17:53:47.326Z,-1.30
2018-02-09T17:56:15.598Z,-1.40
2018-02-09T17:58:43.895Z,-1.50
2018-02-09T18:01:11.414Z,-1.50
2018-02-09T18:03:38.925Z,-1.40
2018-02-09T18:06:06.484Z,-1.30
2018-02-09T18:08:33.989Z,-1.30
2018-02-09T18:11:01.511Z,-1.30
2018-02-09T18:13:29.026Z,-1.20
2018-02-09T18:15:57.310Z,-1.20
2018-02-09T18:18:24.874Z,-1.20
2018-02-09T18:20:52.393Z,-1.30
2018-02-09T18:23:19.894Z,-1.30
2018-02-09T18:25:47.414Z,-1.20
2018-02-09T18:28:14.923Z,-1.10
2018-02-09T18:30:42.442Z,-1.20
2018-02-09T18:33:10.716Z,-1.30
2018-02-09T18:35:39.010Z,-1.30
2018-02-09T18:38:06.578Z,-1.30
2018-02-09T18:40:34.129Z,-1.40
2018-02-09T18:43:01.634Z,-1.50
2018-02-09T18:45:29.149Z,-1.60
2018-02-09T18:47:56.664Z,-1.60
2018-02-09T18:50:24.182Z,-1.60
2018-02-09T18:52:51.685Z,-1.40
2018-02-09T18:55:19.253Z,-1.40
2018-02-09T18:57:46.842Z,-1.30
2018-02-09T19:00:14.355Z,-1.40
2018-02-09T19:02:41.958Z,-1.40
2018-02-09T19:05:09.467Z,-1.30
2018-02-09T19:07:37.295Z,-1.20
2018-02-09T19:10:04.806Z,-1.20
2018-02-09T19:12:32.574Z,-1.10
2018-02-09T19:15:00.178Z,-1.30
2018-02-09T19:17:27.722Z,-1.20
2018-02-09T19:19:55.286Z,-1.30
2018-02-09T19:22:22.822Z,-1.40
2018-02-09T19:24:51.121Z,-1.40
2018-02-09T19:27:18.662Z,-1.40
2018-02-09T19:29:46.938Z,-1.30
2018-02-09T19:32:15.229Z,-1.30
2018-02-09T19:34:42.757Z,-1.30
2018-02-09T19:37:10.346Z,-1.30
2018-02-09T19:39:37.852Z,-1.40
2018-02-09T19:42:05.378Z,-1.40
2018-02-09T19:44:32.882Z,-1.40
2018-02-09T19:47:00.406Z,-1.30
2018-02-09T19:49:27.906Z,-1.30
2018-02-09T19:51:55.435Z,-1.20
2018-02-09T19:54:22.939Z,-1.30
2018-02-09T19:56:51.277Z,-1.40
2018-02-09T19:59:18.782Z,-1.40
2018-02-09T20:01:47.050Z,-1.40
2018-02-09T20:04:15.338Z,-1.30
2018-02-09T20:06:42.842Z,-1.30
2018-02-09T20:09:10.362Z,-1.30
2018-02-09T20:11:37.874Z,-1.30
2018-02-09T20:14:05.394Z,-1.20
2018-02-09T20:16:32.902Z,-1.30
2018-02-09T20:19:00.422Z,-1.30
2018-02-09T20:21:27.926Z,-1.40
2018-02-09T20:23:56.218Z,-1.40
2018-02-09T20:26:24.485Z,-1.40
2018-02-09T20:28:52.892Z,-1.40
2018-02-09T20:31:20.558Z,-1.40
2018-02-09T20:33:48.073Z,-1.40
2018-02-09T20:36:15.658Z,-1.50
2018-02-09T20:38:43.204Z,-1.50
2018-02-09T20:41:10.749Z,-1.50
2018-02-09T20:43:39.169Z,-1.50
2018-02-09T20:46:06.728Z,-1.50
2018-02-09T20:48:34.286Z,-1.50
2018-02-09T20:51:01.841Z,-1.50
2018-02-09T20:53:29.394Z,-1.40
2018-02-09T20:55:57.089Z,-1.30
2018-02-09T20:58:24.702Z,-1.40
2018-02-09T21:00:53.054Z,-1.50
2018-02-09T21:03:20.655Z,-1.50
2018-02-09T21:05:48.250Z,-1.50
2018-02-09T21:08:15.785Z,-1.50
2018-02-09T21:10:43.381Z,-1.40
2018-02-09T21:13:11.022Z,-1.40
2018-02-09T21:15:38.542Z,-1.40
2018-02-09T21:18:06.066Z,-1.40
2018-02-09T21:20:33.669Z,-1.40
2018-02-09T21:23:01.230Z,-1.50
2018-02-09T21:25:28.786Z,-1.50
2018-02-09T21:27:56.287Z,-1.40
2018-02-09T21:30:23.811Z,-1.50
2018-02-09T21:32:51.371Z,-1.40
2018-02-09T21:35:18.889Z,-1.40
2018-02-09T21:37:46.398Z,-1.40
2018-02-09T21:40:13.927Z,-1.50
2018-02-09T21:42:42.202Z,-1.40
2018-02-09T21:45:10.487Z,-1.50
2018-02-09T21:47:37.997Z,-1.50
2018-02-09T21:50:05.522Z,-1.40
2018-02-09T21:52:33.025Z,-1.50
2018-02-09T21:55:00.546Z,-1.50
2018-02-09T21:57:28.066Z,-1.40
2018-02-09T21:59:56.333Z,-1.40
2018-02-09T22:02:24.618Z,-1.40
2018-02-09T22:04:52.894Z,-1.40
2018-02-09T22:07:21.198Z,-1.50
2018-02-09T22:09:48.705Z,-1.50
2018-02-09T22:12:16.236Z,-1.40
2018-02-09T22:14:43.746Z,-1.40
2018-02-09T22:17:12.137Z,-1.40
2018-02-09T22:19:39.645Z,-1.40
2018-02-09T22:22:07.166Z,-1.40
2018-02-09T22:24:34.669Z,-1.40
2018-02-09T22:27:02.283Z,-1.40
2018-02-09T22:29:29.787Z,-1.40
2018-02-09T22:31:57.315Z,-1.40
2018-02-09T22:34:24.814Z,-1.40
2018-02-09T22:36:52.334Z,-1.40
2018-02-09T22:39:19.876Z,-1.40
2018-02-09T22:41:47.419Z,-1.40
2018-02-09T22:44:14.929Z,-1.30
2018-02-09T22:46:42.446Z,-1.40
2018-02-09T22:49:09.950Z,-1.30
2018-02-09T22:51:37.450Z,-1.40
2018-02-09T22:54:05.742Z,-1.40
2018-02-09T22:56:33.253Z,-1.40
2018-02-09T22:59:00.773Z,-1.40
2018-02-09T23:01:28.277Z,-1.40
2018-02-09T23:03:56.589Z,-1.40
2018-02-09T23:06:24.097Z,-1.40
2018-02-09T23:08:51.618Z,-1.40
2018-02-09T23:11:19.122Z,-1.40
2018-02-09T23:13:46.641Z,-1.50
2018-02-09T23:16:14.143Z,-1.40
2018-02-09T23:18:41.662Z,-1.30
2018-02-09T23:21:09.167Z,-1.40
2018-02-09T23:23:37.450Z,-1.40
2018-02-09T23:26:05.722Z,-1.40
2018-02-09T23:28:34.010Z,-1.40
2018-02-09T23:31:02.284Z,-1.40
2018-02-09T23:33:29.812Z,-1.40
2018-02-09T23:35:57.319Z,-1.40
2018-02-09T23:38:24.872Z,-1.40
2018-02-09T23:40:52.374Z,-1.30
2018-02-09T23:43:19.985Z,-1.30
2018-02-09T23:45:47.486Z,-1.40
2018-02-09T23:48:15.043Z,-1.40
2018-02-09T23:50:42.570Z,-1.40
2018-02-09T23:53:10.074Z,-1.40
2018-02-09T23:55:37.602Z,-1.30
2018-02-09T23:58:05.107Z,-1.30
